sensor_id;sensor_type;location;lat;lon;timestamp;pressure;altitude;pressure_sealevel;temperature;humidity
65718;BME280;52445;52.466;-1.016;2023-05-20T00:00:34;101470.75;;;10.27;64.72
65718;BME280;52445;52.466;-1.016;2023-05-20T00:03:00;101468.97;;;10.24;64.78
65718;BME280;52445;52.466;-1.016;2023-05-20T00:05:27;101468.97;;;10.23;64.50
65718;BME280;52445;52.466;-1.016;2023-05-20T00:07:54;101474.91;;;10.20;64.57
65718;BME280;52445;52.466;-1.016;2023-05-20T00:10:20;101471.44;;;10.18;64.86
65718;BME280;52445;52.466;-1.016;2023-05-20T00:12:47;101468.81;;;10.16;64.97
65718;BME280;52445;52.466;-1.016;2023-05-20T00:15:13;101469.63;;;10.14;64.47
65718;BME280;52445;52.466;-1.016;2023-05-20T00:17:40;101476.47;;;10.12;64.36
65718;BME280;52445;52.466;-1.016;2023-05-20T00:20:07;101475.63;;;10.11;64.70
65718;BME280;52445;52.466;-1.016;2023-05-20T00:22:34;101485.94;;;10.10;64.55
65718;BME280;52445;52.466;-1.016;2023-05-20T00:25:02;101480.72;;;10.08;64.72
65718;BME280;52445;52.466;-1.016;2023-05-20T00:27:30;101480.69;;;10.07;65.00
65718;BME280;52445;52.466;-1.016;2023-05-20T00:29:58;101481.44;;;10.02;64.73
65718;BME280;52445;52.466;-1.016;2023-05-20T00:32:27;101475.31;;;9.99;65.10
65718;BME280;52445;52.466;-1.016;2023-05-20T00:34:56;101483.84;;;9.95;65.01
65718;BME280;52445;52.466;-1.016;2023-05-20T00:37:25;101470.00;;;9.93;65.40
65718;BME280;52445;52.466;-1.016;2023-05-20T00:39:54;101470.81;;;9.90;65.50
65718;BME280;52445;52.466;-1.016;2023-05-20T00:42:25;101476.81;;;9.89;65.20
65718;BME280;52445;52.466;-1.016;2023-05-20T00:44:54;101472.41;;;9.85;65.61
65718;BME280;52445;52.466;-1.016;2023-05-20T00:47:27;101472.34;;;9.82;65.48
65718;BME280;52445;52.466;-1.016;2023-05-20T00:49:57;101468.84;;;9.80;65.48
65718;BME280;52445;52.466;-1.016;2023-05-20T00:52:31;101467.09;;;9.79;65.09
65718;BME280;52445;52.466;-1.016;2023-05-20T00:54:59;101457.53;;;9.76;65.77
65718;BME280;52445;52.466;-1.016;2023-05-20T00:57:28;101465.28;;;9.74;65.41
65718;BME280;52445;52.466;-1.016;2023-05-20T00:59:56;101461.78;;;9.72;65.54
65718;BME280;52445;52.466;-1.016;2023-05-20T01:02:23;101463.47;;;9.70;66.37
65718;BME280;52445;52.466;-1.016;2023-05-20T01:04:51;101461.66;;;9.68;65.65
65718;BME280;52445;52.466;-1.016;2023-05-20T01:07:18;101461.63;;;9.66;65.82
65718;BME280;52445;52.466;-1.016;2023-05-20T01:09:45;101468.41;;;9.61;66.11
65718;BME280;52445;52.466;-1.016;2023-05-20T01:12:22;101455.41;;;9.58;65.50
65718;BME280;52445;52.466;-1.016;2023-05-20T01:15:04;101456.16;;;9.54;65.78
65718;BME280;52445;52.466;-1.016;2023-05-20T01:17:36;101453.63;;;9.55;65.69
65718;BME280;52445;52.466;-1.016;2023-05-20T01:20:05;101454.41;;;9.52;65.79
65718;BME280;52445;52.466;-1.016;2023-05-20T01:22:37;101451.75;;;9.49;66.27
65718;BME280;52445;52.466;-1.016;2023-05-20T01:25:04;101448.22;;;9.46;65.77
65718;BME280;52445;52.466;-1.016;2023-05-20T01:27:31;101441.22;;;9.42;66.11
65718;BME280;52445;52.466;-1.016;2023-05-20T01:29:58;101442.94;;;9.41;65.93
65718;BME280;52445;52.466;-1.016;2023-05-20T01:32:36;101443.63;;;9.34;66.10
65718;BME280;52445;52.466;-1.016;2023-05-20T01:35:05;101438.44;;;9.34;66.38
65718;BME280;52445;52.466;-1.016;2023-05-20T01:37:35;101442.72;;;9.32;66.16
65718;BME280;52445;52.466;-1.016;2023-05-20T01:40:06;101450.41;;;9.29;66.86
65718;BME280;52445;52.466;-1.016;2023-05-20T01:42:34;101439.97;;;9.25;66.46
65718;BME280;52445;52.466;-1.016;2023-05-20T01:45:02;101443.41;;;9.24;66.48
65718;BME280;52445;52.466;-1.016;2023-05-20T01:47:29;101437.31;;;9.22;66.68
65718;BME280;52445;52.466;-1.016;2023-05-20T01:49:56;101435.56;;;9.21;66.65
65718;BME280;52445;52.466;-1.016;2023-05-20T01:52:23;101439.81;;;9.19;66.91
65718;BME280;52445;52.466;-1.016;2023-05-20T01:54:50;101434.56;;;9.16;66.97
65718;BME280;52445;52.466;-1.016;2023-05-20T01:57:18;101427.63;;;9.15;66.63
65718;BME280;52445;52.466;-1.016;2023-05-20T01:59:45;101429.31;;;9.13;67.00
65718;BME280;52445;52.466;-1.016;2023-05-20T02:02:12;101437.91;;;9.12;66.81
65718;BME280;52445;52.466;-1.016;2023-05-20T02:04:41;101436.09;;;9.09;67.41
65718;BME280;52445;52.466;-1.016;2023-05-20T02:07:09;101434.31;;;9.07;67.27
65718;BME280;52445;52.466;-1.016;2023-05-20T02:09:36;101432.59;;;9.06;67.03
65718;BME280;52445;52.466;-1.016;2023-05-20T02:12:03;101434.25;;;9.04;67.41
65718;BME280;52445;52.466;-1.016;2023-05-20T02:14:30;101432.41;;;8.99;67.44
65718;BME280;52445;52.466;-1.016;2023-05-20T02:16:57;101434.09;;;8.97;67.42
65718;BME280;52445;52.466;-1.016;2023-05-20T02:19:24;101430.59;;;8.95;67.59
65718;BME280;52445;52.466;-1.016;2023-05-20T02:21:50;101428.75;;;8.91;67.95
65718;BME280;52445;52.466;-1.016;2023-05-20T02:24:17;101425.28;;;8.89;67.36
65718;BME280;52445;52.466;-1.016;2023-05-20T02:26:45;101426.94;;;8.87;67.57
65718;BME280;52445;52.466;-1.016;2023-05-20T02:29:12;101418.19;;;8.82;67.07
65718;BME280;52445;52.466;-1.016;2023-05-20T02:31:38;101419.84;;;8.80;67.90
65718;BME280;52445;52.466;-1.016;2023-05-20T02:34:05;101419.75;;;8.77;67.79
65718;BME280;52445;52.466;-1.016;2023-05-20T02:36:32;101417.13;;;8.73;68.06
65718;BME280;52445;52.466;-1.016;2023-05-20T02:38:58;101420.50;;;8.72;67.18
65718;BME280;52445;52.466;-1.016;2023-05-20T02:41:26;101420.44;;;8.69;67.11
65718;BME280;52445;52.466;-1.016;2023-05-20T02:43:53;101426.41;;;8.68;67.92
65718;BME280;52445;52.466;-1.016;2023-05-20T02:46:19;101421.16;;;8.65;67.27
65718;BME280;52445;52.466;-1.016;2023-05-20T02:48:46;101426.34;;;8.65;67.62
65718;BME280;52445;52.466;-1.016;2023-05-20T02:51:13;101420.28;;;8.63;67.28
65718;BME280;52445;52.466;-1.016;2023-05-20T02:53:40;101421.09;;;8.62;67.10
65718;BME280;52445;52.466;-1.016;2023-05-20T02:56:06;101420.22;;;8.61;67.48
65718;BME280;52445;52.466;-1.016;2023-05-20T02:58:34;101417.59;;;8.60;67.55
65718;BME280;52445;52.466;-1.016;2023-05-20T03:01:01;101414.13;;;8.58;68.14
65718;BME280;52445;52.466;-1.016;2023-05-20T03:03:27;101414.88;;;8.55;67.61
65718;BME280;52445;52.466;-1.016;2023-05-20T03:05:54;101412.28;;;8.54;67.91
65718;BME280;52445;52.466;-1.016;2023-05-20T03:08:22;101415.63;;;8.53;67.83
65718;BME280;52445;52.466;-1.016;2023-05-20T03:10:49;101412.16;;;8.51;67.82
65718;BME280;52445;52.466;-1.016;2023-05-20T03:13:16;101415.53;;;8.49;67.12
65718;BME280;52445;52.466;-1.016;2023-05-20T03:15:43;101407.78;;;8.48;67.43
65718;BME280;52445;52.466;-1.016;2023-05-20T03:18:11;101411.97;;;8.44;67.76
65718;BME280;52445;52.466;-1.016;2023-05-20T03:20:39;101414.50;;;8.43;67.96
65718;BME280;52445;52.466;-1.016;2023-05-20T03:23:07;101410.13;;;8.40;67.77
65718;BME280;52445;52.466;-1.016;2023-05-20T03:25:35;101412.72;;;8.40;68.12
65718;BME280;52445;52.466;-1.016;2023-05-20T03:28:02;101404.03;;;8.36;67.85
65718;BME280;52445;52.466;-1.016;2023-05-20T03:30:29;101416.97;;;8.38;68.37
65718;BME280;52445;52.466;-1.016;2023-05-20T03:32:57;101412.69;;;8.39;67.90
65718;BME280;52445;52.466;-1.016;2023-05-20T03:35:24;101410.03;;;8.37;67.77
65718;BME280;52445;52.466;-1.016;2023-05-20T03:37:51;101402.31;;;8.37;68.44
65718;BME280;52445;52.466;-1.016;2023-05-20T03:40:19;101408.31;;;8.36;68.49
65718;BME280;52445;52.466;-1.016;2023-05-20T03:42:46;101409.16;;;8.35;67.71
65718;BME280;52445;52.466;-1.016;2023-05-20T03:45:13;101409.94;;;8.32;67.43
65718;BME280;52445;52.466;-1.016;2023-05-20T03:47:40;101411.53;;;8.29;68.14
65718;BME280;52445;52.466;-1.016;2023-05-20T03:50:06;101407.13;;;8.25;68.52
65718;BME280;52445;52.466;-1.016;2023-05-20T03:52:33;101404.44;;;8.21;67.69
65718;BME280;52445;52.466;-1.016;2023-05-20T03:55:00;101406.13;;;8.19;68.15
65718;BME280;52445;52.466;-1.016;2023-05-20T03:57:26;101407.78;;;8.17;68.40
65718;BME280;52445;52.466;-1.016;2023-05-20T03:59:55;101399.94;;;8.14;68.02
65718;BME280;52445;52.466;-1.016;2023-05-20T04:02:21;101401.66;;;8.14;68.61
65718;BME280;52445;52.466;-1.016;2023-05-20T04:04:48;101405.94;;;8.13;67.65
65718;BME280;52445;52.466;-1.016;2023-05-20T04:07:18;101405.94;;;8.13;67.98
65718;BME280;52445;52.466;-1.016;2023-05-20T04:09:45;101403.34;;;8.13;68.87
65718;BME280;52445;52.466;-1.016;2023-05-20T04:12:12;101399.03;;;8.12;67.41
65718;BME280;52445;52.466;-1.016;2023-05-20T04:14:39;101407.59;;;8.11;67.77
65718;BME280;52445;52.466;-1.016;2023-05-20T04:17:07;101400.69;;;8.10;68.42
65718;BME280;52445;52.466;-1.016;2023-05-20T04:19:35;101408.38;;;8.08;68.63
65718;BME280;52445;52.466;-1.016;2023-05-20T04:22:03;101403.22;;;8.08;68.82
65718;BME280;52445;52.466;-1.016;2023-05-20T04:24:30;101411.84;;;8.09;68.29
65718;BME280;52445;52.466;-1.016;2023-05-20T04:26:57;101416.09;;;8.07;68.21
65718;BME280;52445;52.466;-1.016;2023-05-20T04:29:24;101409.22;;;8.07;67.72
65718;BME280;52445;52.466;-1.016;2023-05-20T04:31:50;101407.41;;;8.05;67.81
65718;BME280;52445;52.466;-1.016;2023-05-20T04:34:17;101406.53;;;8.04;68.80
65718;BME280;52445;52.466;-1.016;2023-05-20T04:36:45;101410.78;;;8.02;68.15
65718;BME280;52445;52.466;-1.016;2023-05-20T04:39:12;101407.31;;;8.02;68.00
65718;BME280;52445;52.466;-1.016;2023-05-20T04:41:39;101402.16;;;8.02;67.81
65718;BME280;52445;52.466;-1.016;2023-05-20T04:44:05;101412.47;;;8.02;67.36
65718;BME280;52445;52.466;-1.016;2023-05-20T04:46:32;101411.63;;;8.01;68.58
65718;BME280;52445;52.466;-1.016;2023-05-20T04:48:59;101411.63;;;8.03;67.33
65718;BME280;52445;52.466;-1.016;2023-05-20T04:51:26;101409.03;;;8.01;68.61
65718;BME280;52445;52.466;-1.016;2023-05-20T04:53:52;101409.91;;;8.02;68.39
65718;BME280;52445;52.466;-1.016;2023-05-20T04:56:19;101409.06;;;8.03;67.99
65718;BME280;52445;52.466;-1.016;2023-05-20T04:58:46;101409.06;;;8.03;68.81
65718;BME280;52445;52.466;-1.016;2023-05-20T05:01:12;101402.22;;;8.03;68.35
65718;BME280;52445;52.466;-1.016;2023-05-20T05:03:39;101403.19;;;8.07;68.59
65718;BME280;52445;52.466;-1.016;2023-05-20T05:06:06;101401.50;;;8.09;68.66
65718;BME280;52445;52.466;-1.016;2023-05-20T05:08:32;101407.63;;;8.13;68.21
65718;BME280;52445;52.466;-1.016;2023-05-20T05:10:59;101404.34;;;8.18;68.43
65718;BME280;52445;52.466;-1.016;2023-05-20T05:13:25;101408.81;;;8.24;69.26
65718;BME280;52445;52.466;-1.016;2023-05-20T05:16:00;101405.53;;;8.30;68.73
65718;BME280;52445;52.466;-1.016;2023-05-20T05:18:27;101407.47;;;8.37;68.74
65718;BME280;52445;52.466;-1.016;2023-05-20T05:20:59;101404.22;;;8.44;70.09
65718;BME280;52445;52.466;-1.016;2023-05-20T05:23:26;101400.22;;;8.54;69.88
65718;BME280;52445;52.466;-1.016;2023-05-20T05:25:53;101398.69;;;8.61;69.83
65718;BME280;52445;52.466;-1.016;2023-05-20T05:28:20;101403.13;;;8.67;69.46
65718;BME280;52445;52.466;-1.016;2023-05-20T05:30:46;101391.25;;;8.72;70.20
65718;BME280;52445;52.466;-1.016;2023-05-20T05:33:14;101397.44;;;8.79;69.89
65718;BME280;52445;52.466;-1.016;2023-05-20T05:35:41;101397.56;;;8.83;70.61
65718;BME280;52445;52.466;-1.016;2023-05-20T05:38:08;101405.50;;;8.91;70.16
65718;BME280;52445;52.466;-1.016;2023-05-20T05:40:35;101400.47;;;8.96;70.28
65718;BME280;52445;52.466;-1.016;2023-05-20T05:43:02;101394.50;;;8.98;70.34
65718;BME280;52445;52.466;-1.016;2023-05-20T05:45:29;101398.06;;;9.04;69.96
65718;BME280;52445;52.466;-1.016;2023-05-20T05:47:56;101398.31;;;9.13;69.85
65718;BME280;52445;52.466;-1.016;2023-05-20T05:50:22;101403.78;;;9.25;69.97
65718;BME280;52445;52.466;-1.016;2023-05-20T05:52:49;101400.59;;;9.36;70.32
65718;BME280;52445;52.466;-1.016;2023-05-20T05:55:16;101397.34;;;9.46;70.24
65718;BME280;52445;52.466;-1.016;2023-05-20T05:57:43;101402.13;;;9.64;70.56
65718;BME280;52445;52.466;-1.016;2023-05-20T06:00:11;101405.13;;;9.85;70.21
65718;BME280;52445;52.466;-1.016;2023-05-20T06:02:37;101409.00;;;10.04;70.28
65718;BME280;52445;52.466;-1.016;2023-05-20T06:05:04;101401.63;;;10.24;70.47
65718;BME280;52445;52.466;-1.016;2023-05-20T06:07:31;101404.53;;;10.40;69.75
65718;BME280;52445;52.466;-1.016;2023-05-20T06:09:58;101389.38;;;10.59;70.71
65718;BME280;52445;52.466;-1.016;2023-05-20T06:12:24;101397.53;;;10.79;70.49
65718;BME280;52445;52.466;-1.016;2023-05-20T06:14:51;101387.44;;;10.95;69.23
65718;BME280;52445;52.466;-1.016;2023-05-20T06:17:18;101392.78;;;11.05;69.11
65718;BME280;52445;52.466;-1.016;2023-05-20T06:19:44;101392.16;;;11.19;69.35
65718;BME280;52445;52.466;-1.016;2023-05-20T06:22:11;101391.44;;;11.28;69.67
65718;BME280;52445;52.466;-1.016;2023-05-20T06:24:38;101397.66;;;11.38;69.59
65718;BME280;52445;52.466;-1.016;2023-05-20T06:27:04;101390.69;;;11.37;68.16
65718;BME280;52445;52.466;-1.016;2023-05-20T06:29:31;101387.28;;;11.38;69.20
65718;BME280;52445;52.466;-1.016;2023-05-20T06:31:58;101388.09;;;11.37;68.16
65718;BME280;52445;52.466;-1.016;2023-05-20T06:34:25;101380.31;;;11.37;67.99
65718;BME280;52445;52.466;-1.016;2023-05-20T06:36:52;101382.94;;;11.38;68.03
65718;BME280;52445;52.466;-1.016;2023-05-20T06:39:18;101381.31;;;11.45;68.17
65718;BME280;52445;52.466;-1.016;2023-05-20T06:41:45;101384.91;;;11.53;68.84
65718;BME280;52445;52.466;-1.016;2023-05-20T06:44:12;101380.72;;;11.62;67.47
65718;BME280;52445;52.466;-1.016;2023-05-20T06:46:39;101382.53;;;11.69;67.81
65718;BME280;52445;52.466;-1.016;2023-05-20T06:49:05;101380.06;;;11.78;68.24
65718;BME280;52445;52.466;-1.016;2023-05-20T06:51:32;101376.22;;;12.12;69.11
65718;BME280;52445;52.466;-1.016;2023-05-20T06:53:59;101373.06;;;12.41;68.64
65718;BME280;52445;52.466;-1.016;2023-05-20T06:56:26;101376.84;;;12.71;68.85
65718;BME280;52445;52.466;-1.016;2023-05-20T06:58:54;101373.59;;;12.94;67.10
65718;BME280;52445;52.466;-1.016;2023-05-20T07:01:20;101369.34;;;13.04;67.21
65718;BME280;52445;52.466;-1.016;2023-05-20T07:03:47;101371.09;;;13.09;66.17
65718;BME280;52445;52.466;-1.016;2023-05-20T07:06:14;101365.06;;;13.14;67.32
65718;BME280;52445;52.466;-1.016;2023-05-20T07:08:40;101366.06;;;13.28;66.77
65718;BME280;52445;52.466;-1.016;2023-05-20T07:11:07;101365.28;;;13.45;66.79
65718;BME280;52445;52.466;-1.016;2023-05-20T07:13:34;101367.13;;;13.60;67.02
65718;BME280;52445;52.466;-1.016;2023-05-20T07:16:01;101367.31;;;13.93;66.63
65718;BME280;52445;52.466;-1.016;2023-05-20T07:18:28;101360.47;;;14.20;65.48
65718;BME280;52445;52.466;-1.016;2023-05-20T07:20:54;101358.81;;;14.61;66.34
65718;BME280;52445;52.466;-1.016;2023-05-20T07:23:23;101358.00;;;14.99;65.44
65718;BME280;52445;52.466;-1.016;2023-05-20T07:25:49;101360.59;;;15.35;65.43
65718;BME280;52445;52.466;-1.016;2023-05-20T07:28:16;101363.97;;;15.75;64.46
65718;BME280;52445;52.466;-1.016;2023-05-20T07:30:43;101356.06;;;16.00;63.33
65718;BME280;52445;52.466;-1.016;2023-05-20T07:33:16;101367.28;;;16.27;62.86
65718;BME280;52445;52.466;-1.016;2023-05-20T07:35:43;101355.88;;;16.43;62.66
65718;BME280;52445;52.466;-1.016;2023-05-20T07:38:11;101367.09;;;16.58;61.34
65718;BME280;52445;52.466;-1.016;2023-05-20T07:40:38;101363.44;;;16.81;61.90
65718;BME280;52445;52.466;-1.016;2023-05-20T07:43:07;101362.38;;;17.12;60.82
65718;BME280;52445;52.466;-1.016;2023-05-20T07:45:34;101368.25;;;17.34;60.20
65718;BME280;52445;52.466;-1.016;2023-05-20T07:48:03;101354.97;;;17.54;60.03
65718;BME280;52445;52.466;-1.016;2023-05-20T07:50:32;101362.53;;;17.78;58.81
65718;BME280;52445;52.466;-1.016;2023-05-20T07:52:59;101367.56;;;17.96;57.77
65718;BME280;52445;52.466;-1.016;2023-05-20T07:55:26;101368.16;;;18.20;58.01
65718;BME280;52445;52.466;-1.016;2023-05-20T07:57:53;101360.84;;;18.43;57.31
65718;BME280;52445;52.466;-1.016;2023-05-20T08:00:20;101359.81;;;18.55;56.55
65718;BME280;52445;52.466;-1.016;2023-05-20T08:02:46;101359.72;;;18.61;55.62
65718;BME280;52445;52.466;-1.016;2023-05-20T08:05:13;101356.91;;;18.73;55.30
65718;BME280;52445;52.466;-1.016;2023-05-20T08:07:40;101354.97;;;18.85;55.29
65718;BME280;52445;52.466;-1.016;2023-05-20T08:10:07;101361.72;;;19.00;55.19
65718;BME280;52445;52.466;-1.016;2023-05-20T08:12:34;101354.50;;;19.14;54.98
65718;BME280;52445;52.466;-1.016;2023-05-20T08:15:01;101353.34;;;19.30;54.31
65718;BME280;52445;52.466;-1.016;2023-05-20T08:17:28;101359.28;;;19.39;53.55
65718;BME280;52445;52.466;-1.016;2023-05-20T08:19:55;101351.28;;;19.47;53.42
65718;BME280;52445;52.466;-1.016;2023-05-20T08:22:22;101361.59;;;19.57;52.43
65718;BME280;52445;52.466;-1.016;2023-05-20T08:24:48;101358.91;;;19.60;51.97
65718;BME280;52445;52.466;-1.016;2023-05-20T08:27:15;101354.38;;;19.68;52.12
65718;BME280;52445;52.466;-1.016;2023-05-20T08:29:43;101350.72;;;19.75;51.68
65718;BME280;52445;52.466;-1.016;2023-05-20T08:32:10;101354.81;;;19.89;51.49
65718;BME280;52445;52.466;-1.016;2023-05-20T08:34:37;101355.53;;;19.99;50.47
65718;BME280;52445;52.466;-1.016;2023-05-20T08:37:04;101351.78;;;20.11;50.67
65718;BME280;52445;52.466;-1.016;2023-05-20T08:39:31;101346.09;;;20.29;50.84
65718;BME280;52445;52.466;-1.016;2023-05-20T08:42:01;101347.56;;;20.41;50.64
65718;BME280;52445;52.466;-1.016;2023-05-20T08:44:29;101355.22;;;20.52;49.87
65718;BME280;52445;52.466;-1.016;2023-05-20T08:46:56;101361.03;;;20.67;49.75
65718;BME280;52445;52.466;-1.016;2023-05-20T08:49:23;101357.13;;;20.84;48.91
65718;BME280;52445;52.466;-1.016;2023-05-20T08:51:50;101358.66;;;20.94;48.66
65718;BME280;52445;52.466;-1.016;2023-05-20T08:54:17;101360.38;;;20.95;47.48
65718;BME280;52445;52.466;-1.016;2023-05-20T08:56:46;101354.25;;;20.95;47.76
65718;BME280;52445;52.466;-1.016;2023-05-20T08:59:13;101353.50;;;20.88;47.38
65718;BME280;52445;52.466;-1.016;2023-05-20T09:01:41;101358.91;;;20.81;47.19
65718;BME280;52445;52.466;-1.016;2023-05-20T09:04:09;101355.25;;;20.89;47.89
65718;BME280;52445;52.466;-1.016;2023-05-20T09:06:45;101342.66;;;21.02;47.30
65718;BME280;52445;52.466;-1.016;2023-05-20T09:09:12;101341.38;;;21.17;47.43
65718;BME280;52445;52.466;-1.016;2023-05-20T09:11:40;101343.44;;;21.39;47.06
65718;BME280;52445;52.466;-1.016;2023-05-20T09:14:08;101350.25;;;21.46;46.07
65718;BME280;52445;52.466;-1.016;2023-05-20T09:16:35;101340.41;;;21.53;46.09
65718;BME280;52445;52.466;-1.016;2023-05-20T09:19:04;101344.38;;;21.68;45.79
65718;BME280;52445;52.466;-1.016;2023-05-20T09:21:31;101337.03;;;21.79;45.96
65718;BME280;52445;52.466;-1.016;2023-05-20T09:24:01;101340.59;;;21.78;44.42
65718;BME280;52445;52.466;-1.016;2023-05-20T09:26:28;101336.88;;;21.86;44.14
65718;BME280;52445;52.466;-1.016;2023-05-20T09:28:56;101328.31;;;21.77;44.04
65718;BME280;52445;52.466;-1.016;2023-05-20T09:31:27;101326.41;;;21.82;45.18
65718;BME280;52445;52.466;-1.016;2023-05-20T09:33:56;101321.03;;;21.86;44.67
65718;BME280;52445;52.466;-1.016;2023-05-20T09:36:22;101328.25;;;21.80;43.13
65718;BME280;52445;52.466;-1.016;2023-05-20T09:38:53;101322.19;;;21.77;44.38
65718;BME280;52445;52.466;-1.016;2023-05-20T09:41:26;101337.38;;;21.99;45.15
65718;BME280;52445;52.466;-1.016;2023-05-20T09:43:58;101324.31;;;21.94;44.00
65718;BME280;52445;52.466;-1.016;2023-05-20T09:46:26;101326.03;;;21.95;43.75
65718;BME280;52445;52.466;-1.016;2023-05-20T09:48:53;101315.31;;;22.01;43.58
65718;BME280;52445;52.466;-1.016;2023-05-20T09:51:22;101308.00;;;22.09;43.61
65718;BME280;52445;52.466;-1.016;2023-05-20T09:53:50;101310.22;;;22.24;43.59
65718;BME280;52445;52.466;-1.016;2023-05-20T09:56:19;101307.13;;;22.38;44.06
65718;BME280;52445;52.466;-1.016;2023-05-20T09:58:48;101310.91;;;22.30;43.20
65718;BME280;52445;52.466;-1.016;2023-05-20T10:01:15;101308.31;;;22.29;43.34
65718;BME280;52445;52.466;-1.016;2023-05-20T10:03:43;101304.09;;;22.23;42.43
65718;BME280;52445;52.466;-1.016;2023-05-20T10:09:11;101302.47;;;22.19;43.29
65718;BME280;52445;52.466;-1.016;2023-05-20T10:11:47;101308.88;;;22.39;43.27
65718;BME280;52445;52.466;-1.016;2023-05-20T10:17:02;101306.47;;;22.59;43.63
65718;BME280;52445;52.466;-1.016;2023-05-20T10:19:34;101306.28;;;22.66;43.10
65718;BME280;52445;52.466;-1.016;2023-05-20T10:22:06;101310.94;;;22.57;42.40
65718;BME280;52445;52.466;-1.016;2023-05-20T10:24:36;101296.19;;;22.50;42.53
65718;BME280;52445;52.466;-1.016;2023-05-20T10:27:06;101299.53;;;22.55;42.20
65718;BME280;52445;52.466;-1.016;2023-05-20T10:32:30;101289.91;;;22.81;42.87
65718;BME280;52445;52.466;-1.016;2023-05-20T10:35:00;101288.50;;;22.71;41.89
65718;BME280;52445;52.466;-1.016;2023-05-20T10:37:39;101288.16;;;22.53;41.35
65718;BME280;52445;52.466;-1.016;2023-05-20T10:40:09;101278.50;;;22.52;42.18
65718;BME280;52445;52.466;-1.016;2023-05-20T10:42:37;101277.66;;;22.52;42.56
65718;BME280;52445;52.466;-1.016;2023-05-20T10:45:05;101278.75;;;22.46;41.82
65718;BME280;52445;52.466;-1.016;2023-05-20T10:47:32;101280.16;;;22.56;42.41
65718;BME280;52445;52.466;-1.016;2023-05-20T10:49:59;101280.22;;;22.53;41.69
65718;BME280;52445;52.466;-1.016;2023-05-20T10:52:32;101274.28;;;22.46;40.82
65718;BME280;52445;52.466;-1.016;2023-05-20T10:54:59;101268.06;;;22.49;41.66
65718;BME280;52445;52.466;-1.016;2023-05-20T10:57:27;101269.41;;;22.63;41.34
65718;BME280;52445;52.466;-1.016;2023-05-20T10:59:55;101263.81;;;22.72;40.81
65718;BME280;52445;52.466;-1.016;2023-05-20T11:02:22;101266.25;;;22.78;41.44
65718;BME280;52445;52.466;-1.016;2023-05-20T11:04:52;101252.59;;;22.91;41.08
65718;BME280;52445;52.466;-1.016;2023-05-20T11:07:28;101250.25;;;22.83;41.00
65718;BME280;52445;52.466;-1.016;2023-05-20T11:09:55;101253.47;;;22.91;40.74
65718;BME280;52445;52.466;-1.016;2023-05-20T11:12:23;101248.66;;;23.03;40.58
65718;BME280;52445;52.466;-1.016;2023-05-20T11:14:51;101242.34;;;23.07;41.70
65718;BME280;52445;52.466;-1.016;2023-05-20T11:17:18;101246.34;;;23.17;41.93
65718;BME280;52445;52.466;-1.016;2023-05-20T11:19:47;101249.31;;;23.33;42.12
65718;BME280;52445;52.466;-1.016;2023-05-20T11:22:13;101245.09;;;23.28;39.28
65718;BME280;52445;52.466;-1.016;2023-05-20T11:24:40;101239.19;;;23.21;39.67
65718;BME280;52445;52.466;-1.016;2023-05-20T11:27:07;101241.25;;;23.13;38.77
65718;BME280;52445;52.466;-1.016;2023-05-20T11:29:34;101239.41;;;23.15;39.12
65718;BME280;52445;52.466;-1.016;2023-05-20T11:32:01;101234.53;;;23.28;40.04
65718;BME280;52445;52.466;-1.016;2023-05-20T11:34:36;101226.22;;;23.39;39.05
65718;BME280;52445;52.466;-1.016;2023-05-20T11:37:07;101224.91;;;23.51;39.61
65718;BME280;52445;52.466;-1.016;2023-05-20T11:39:36;101232.66;;;23.55;38.69
65718;BME280;52445;52.466;-1.016;2023-05-20T11:42:03;101220.59;;;23.48;38.56
65718;BME280;52445;52.466;-1.016;2023-05-20T11:44:31;101227.72;;;23.46;38.78
65718;BME280;52445;52.466;-1.016;2023-05-20T11:47:00;101219.72;;;23.47;38.45
65718;BME280;52445;52.466;-1.016;2023-05-20T11:49:28;101228.59;;;23.46;38.64
65718;BME280;52445;52.466;-1.016;2023-05-20T11:51:56;101222.88;;;23.33;37.64
65718;BME280;52445;52.466;-1.016;2023-05-20T11:54:23;101215.88;;;23.32;38.26
65718;BME280;52445;52.466;-1.016;2023-05-20T11:56:50;101210.50;;;23.35;37.84
65718;BME280;52445;52.466;-1.016;2023-05-20T11:59:19;101209.63;;;23.35;37.94
65718;BME280;52445;52.466;-1.016;2023-05-20T12:01:49;101213.91;;;23.14;37.17
65718;BME280;52445;52.466;-1.016;2023-05-20T12:04:15;101207.59;;;22.94;37.27
65718;BME280;52445;52.466;-1.016;2023-05-20T12:06:43;101199.66;;;22.94;37.67
65718;BME280;52445;52.466;-1.016;2023-05-20T12:09:10;101198.06;;;22.90;37.34
65718;BME280;52445;52.466;-1.016;2023-05-20T12:11:38;101198.06;;;22.90;38.26
65718;BME280;52445;52.466;-1.016;2023-05-20T12:14:07;101190.91;;;22.92;38.63
65718;BME280;52445;52.466;-1.016;2023-05-20T12:16:34;101183.72;;;22.97;38.82
65718;BME280;52445;52.466;-1.016;2023-05-20T12:19:02;101186.91;;;23.05;38.93
65718;BME280;52445;52.466;-1.016;2023-05-20T12:21:34;101186.00;;;23.06;38.34
65718;BME280;52445;52.466;-1.016;2023-05-20T12:24:00;101184.16;;;23.08;37.71
65718;BME280;52445;52.466;-1.016;2023-05-20T12:26:28;101184.22;;;23.07;37.83
65718;BME280;52445;52.466;-1.016;2023-05-20T12:28:55;101183.47;;;23.03;37.16
65718;BME280;52445;52.466;-1.016;2023-05-20T12:31:23;101171.28;;;22.99;38.25
65718;BME280;52445;52.466;-1.016;2023-05-20T12:33:50;101190.66;;;23.00;38.86
65718;BME280;52445;52.466;-1.016;2023-05-20T12:36:17;101173.97;;;22.97;37.44
65718;BME280;52445;52.466;-1.016;2023-05-20T12:38:44;101177.03;;;22.87;37.13
65718;BME280;52445;52.466;-1.016;2023-05-20T12:41:11;101181.72;;;22.78;36.99
65718;BME280;52445;52.466;-1.016;2023-05-20T12:43:38;101176.75;;;22.69;37.13
65718;BME280;52445;52.466;-1.016;2023-05-20T12:46:05;101173.19;;;22.71;36.91
65718;BME280;52445;52.466;-1.016;2023-05-20T12:48:32;101170.47;;;22.73;38.09
65718;BME280;52445;52.466;-1.016;2023-05-20T12:50:59;101170.47;;;22.73;36.93
65718;BME280;52445;52.466;-1.016;2023-05-20T12:53:25;101177.47;;;22.74;37.30
65718;BME280;52445;52.466;-1.016;2023-05-20T12:55:52;101167.94;;;22.70;37.56